Hendrix, North Carolina
Current Conditions -  °F | °C
As of 3:40 PM on Saturday 25 Oct 2014 (Local Time) from KTNB Reporting Station
Clear Clear  
Wind Chill: 62°   Ceiling: Unl
Heat Index: 62°   Visibility: 10mi
Dew Point: 35°   Wind: 14mph
Humidity: 36%   Direction: 290°WNW
Pressure: 30.03"   Gusts: 22mph
Location:  36.1322°N, 81.415°W
Report Text: KTNB 251940Z AUTO 29012G19KT 10SM CLR 17/02 A3003 RMK AO2 T01660016
Loading
Personal Weather Stations






























Interactive Weather Map
Tropical Storm Tracking
New forecast layout! Learn more

10-Day Weather Forecast

Advertisements
Track Severe Weather on mobile